sensor_id;sensor_type;location;lat;lon;timestamp;P1;durP1;ratioP1;P2;durP2;ratioP2
72569;SDS011;60594;50.204;8.844;2023-03-01T00:01:02;11.82;;;5.50;;
72569;SDS011;60594;50.204;8.844;2023-03-01T00:03:29;9.07;;;4.82;;
72569;SDS011;60594;50.204;8.844;2023-03-01T00:05:56;8.45;;;4.78;;
72569;SDS011;60594;50.204;8.844;2023-03-01T00:08:23;12.23;;;6.22;;
72569;SDS011;60594;50.204;8.844;2023-03-01T00:10:59;9.02;;;5.00;;
72569;SDS011;60594;50.204;8.844;2023-03-01T00:13:30;11.85;;;5.55;;
72569;SDS011;60594;50.204;8.844;2023-03-01T00:15:56;10.18;;;5.22;;
72569;SDS011;60594;50.204;8.844;2023-03-01T00:18:23;10.05;;;5.43;;
72569;SDS011;60594;50.204;8.844;2023-03-01T00:20:53;10.45;;;5.18;;
72569;SDS011;60594;50.204;8.844;2023-03-01T00:23:21;10.98;;;5.65;;
72569;SDS011;60594;50.204;8.844;2023-03-01T00:25:49;9.88;;;4.85;;
72569;SDS011;60594;50.204;8.844;2023-03-01T00:28:16;10.27;;;6.28;;
72569;SDS011;60594;50.204;8.844;2023-03-01T00:30:42;9.50;;;5.88;;
72569;SDS011;60594;50.204;8.844;2023-03-01T00:33:09;12.50;;;5.15;;
72569;SDS011;60594;50.204;8.844;2023-03-01T00:35:35;11.55;;;5.53;;
72569;SDS011;60594;50.204;8.844;2023-03-01T00:38:02;10.07;;;5.88;;
72569;SDS011;60594;50.204;8.844;2023-03-01T00:40:30;11.02;;;5.20;;
72569;SDS011;60594;50.204;8.844;2023-03-01T00:43:00;12.18;;;4.65;;
72569;SDS011;60594;50.204;8.844;2023-03-01T00:45:27;10.65;;;5.50;;
72569;SDS011;60594;50.204;8.844;2023-03-01T00:47:54;12.80;;;5.68;;
72569;SDS011;60594;50.204;8.844;2023-03-01T00:50:20;12.68;;;5.97;;
72569;SDS011;60594;50.204;8.844;2023-03-01T00:52:50;11.00;;;4.88;;
72569;SDS011;60594;50.204;8.844;2023-03-01T00:55:19;10.05;;;6.00;;
72569;SDS011;60594;50.204;8.844;2023-03-01T00:57:45;9.30;;;5.15;;
72569;SDS011;60594;50.204;8.844;2023-03-01T01:00:11;10.88;;;5.90;;
72569;SDS011;60594;50.204;8.844;2023-03-01T01:02:38;10.77;;;5.65;;
72569;SDS011;60594;50.204;8.844;2023-03-01T01:05:06;11.10;;;5.13;;
72569;SDS011;60594;50.204;8.844;2023-03-01T01:07:33;9.07;;;5.20;;
72569;SDS011;60594;50.204;8.844;2023-03-01T01:09:59;10.93;;;5.35;;
72569;SDS011;60594;50.204;8.844;2023-03-01T01:12:26;9.07;;;4.35;;
72569;SDS011;60594;50.204;8.844;2023-03-01T01:14:52;11.40;;;5.65;;
72569;SDS011;60594;50.204;8.844;2023-03-01T01:17:19;10.50;;;5.25;;
72569;SDS011;60594;50.204;8.844;2023-03-01T01:19:45;12.35;;;5.70;;
72569;SDS011;60594;50.204;8.844;2023-03-01T01:22:12;11.55;;;5.35;;
72569;SDS011;60594;50.204;8.844;2023-03-01T01:24:38;9.80;;;5.50;;
72569;SDS011;60594;50.204;8.844;2023-03-01T01:27:05;9.30;;;4.65;;
72569;SDS011;60594;50.204;8.844;2023-03-01T01:29:33;12.63;;;5.43;;
72569;SDS011;60594;50.204;8.844;2023-03-01T01:31:59;10.70;;;5.38;;
72569;SDS011;60594;50.204;8.844;2023-03-01T01:34:26;11.68;;;5.75;;
72569;SDS011;60594;50.204;8.844;2023-03-01T01:36:53;12.40;;;6.07;;
72569;SDS011;60594;50.204;8.844;2023-03-01T01:39:20;9.27;;;5.30;;
72569;SDS011;60594;50.204;8.844;2023-03-01T01:41:47;12.02;;;5.60;;
72569;SDS011;60594;50.204;8.844;2023-03-01T01:47:03;11.38;;;5.43;;
72569;SDS011;60594;50.204;8.844;2023-03-01T01:49:51;12.68;;;5.30;;
72569;SDS011;60594;50.204;8.844;2023-03-01T01:52:25;13.52;;;6.30;;
72569;SDS011;60594;50.204;8.844;2023-03-01T01:55:07;10.80;;;5.57;;
72569;SDS011;60594;50.204;8.844;2023-03-01T01:57:42;9.82;;;5.50;;
72569;SDS011;60594;50.204;8.844;2023-03-01T02:00:18;9.63;;;4.78;;
72569;SDS011;60594;50.204;8.844;2023-03-01T02:02:48;11.80;;;6.03;;
72569;SDS011;60594;50.204;8.844;2023-03-01T02:05:27;10.43;;;5.18;;
72569;SDS011;60594;50.204;8.844;2023-03-01T02:07:55;10.43;;;5.43;;
72569;SDS011;60594;50.204;8.844;2023-03-01T02:10:24;9.70;;;5.03;;
72569;SDS011;60594;50.204;8.844;2023-03-01T02:12:52;11.50;;;5.82;;
72569;SDS011;60594;50.204;8.844;2023-03-01T02:15:20;11.65;;;5.32;;
72569;SDS011;60594;50.204;8.844;2023-03-01T02:17:47;9.35;;;5.63;;
72569;SDS011;60594;50.204;8.844;2023-03-01T02:22:58;11.40;;;5.38;;
72569;SDS011;60594;50.204;8.844;2023-03-01T02:30:44;13.30;;;5.82;;
72569;SDS011;60594;50.204;8.844;2023-03-01T02:33:31;10.63;;;4.80;;
72569;SDS011;60594;50.204;8.844;2023-03-01T02:36:03;13.13;;;5.55;;
72569;SDS011;60594;50.204;8.844;2023-03-01T02:38:34;10.43;;;5.53;;
72569;SDS011;60594;50.204;8.844;2023-03-01T02:41:01;11.82;;;5.53;;
72569;SDS011;60594;50.204;8.844;2023-03-01T02:43:31;12.20;;;5.75;;
72569;SDS011;60594;50.204;8.844;2023-03-01T02:46:03;11.52;;;5.03;;
72569;SDS011;60594;50.204;8.844;2023-03-01T02:49:16;9.90;;;6.32;;
72569;SDS011;60594;50.204;8.844;2023-03-01T02:54:05;11.95;;;5.05;;
72569;SDS011;60594;50.204;8.844;2023-03-01T02:56:42;10.90;;;5.78;;
72569;SDS011;60594;50.204;8.844;2023-03-01T02:59:10;14.35;;;6.60;;
72569;SDS011;60594;50.204;8.844;2023-03-01T03:01:37;10.60;;;6.15;;
72569;SDS011;60594;50.204;8.844;2023-03-01T03:04:06;10.38;;;5.18;;
72569;SDS011;60594;50.204;8.844;2023-03-01T03:06:36;12.23;;;5.63;;
72569;SDS011;60594;50.204;8.844;2023-03-01T03:09:04;9.68;;;5.47;;
72569;SDS011;60594;50.204;8.844;2023-03-01T03:11:31;11.23;;;6.03;;
72569;SDS011;60594;50.204;8.844;2023-03-01T03:13:58;9.02;;;5.32;;
72569;SDS011;60594;50.204;8.844;2023-03-01T03:16:25;12.98;;;5.90;;
72569;SDS011;60594;50.204;8.844;2023-03-01T03:18:52;11.63;;;5.75;;
72569;SDS011;60594;50.204;8.844;2023-03-01T03:21:18;9.95;;;5.03;;
72569;SDS011;60594;50.204;8.844;2023-03-01T03:23:45;9.52;;;5.00;;
72569;SDS011;60594;50.204;8.844;2023-03-01T03:26:11;12.48;;;5.60;;
72569;SDS011;60594;50.204;8.844;2023-03-01T03:28:39;11.63;;;6.00;;
72569;SDS011;60594;50.204;8.844;2023-03-01T03:31:06;12.20;;;6.57;;
72569;SDS011;60594;50.204;8.844;2023-03-01T03:33:34;11.68;;;5.93;;
72569;SDS011;60594;50.204;8.844;2023-03-01T03:36:00;11.13;;;5.35;;
72569;SDS011;60594;50.204;8.844;2023-03-01T03:38:27;11.20;;;6.13;;
72569;SDS011;60594;50.204;8.844;2023-03-01T03:41:00;11.82;;;6.45;;
72569;SDS011;60594;50.204;8.844;2023-03-01T03:43:30;12.45;;;6.30;;
72569;SDS011;60594;50.204;8.844;2023-03-01T03:48:25;12.55;;;5.57;;
72569;SDS011;60594;50.204;8.844;2023-03-01T03:50:53;12.23;;;6.28;;
72569;SDS011;60594;50.204;8.844;2023-03-01T03:53:22;11.90;;;6.00;;
72569;SDS011;60594;50.204;8.844;2023-03-01T03:55:49;10.40;;;6.53;;
72569;SDS011;60594;50.204;8.844;2023-03-01T03:58:18;13.15;;;5.95;;
72569;SDS011;60594;50.204;8.844;2023-03-01T04:00:46;16.10;;;6.70;;
72569;SDS011;60594;50.204;8.844;2023-03-01T04:03:15;13.07;;;7.07;;
72569;SDS011;60594;50.204;8.844;2023-03-01T04:05:45;12.48;;;7.55;;
72569;SDS011;60594;50.204;8.844;2023-03-01T04:08:12;11.27;;;5.80;;
72569;SDS011;60594;50.204;8.844;2023-03-01T04:10:43;10.35;;;5.88;;
72569;SDS011;60594;50.204;8.844;2023-03-01T04:13:12;11.95;;;5.82;;
72569;SDS011;60594;50.204;8.844;2023-03-01T04:15:41;11.50;;;5.90;;
72569;SDS011;60594;50.204;8.844;2023-03-01T04:18:12;11.63;;;6.57;;
72569;SDS011;60594;50.204;8.844;2023-03-01T04:20:39;11.75;;;6.28;;
72569;SDS011;60594;50.204;8.844;2023-03-01T04:23:13;14.57;;;7.25;;
72569;SDS011;60594;50.204;8.844;2023-03-01T04:25:47;11.80;;;6.30;;
72569;SDS011;60594;50.204;8.844;2023-03-01T04:28:20;11.45;;;5.68;;
72569;SDS011;60594;50.204;8.844;2023-03-01T04:30:50;11.48;;;5.95;;
72569;SDS011;60594;50.204;8.844;2023-03-01T04:33:18;13.48;;;7.03;;
72569;SDS011;60594;50.204;8.844;2023-03-01T04:35:45;11.70;;;6.30;;
72569;SDS011;60594;50.204;8.844;2023-03-01T04:38:11;11.07;;;5.85;;
72569;SDS011;60594;50.204;8.844;2023-03-01T04:40:38;15.52;;;6.63;;
72569;SDS011;60594;50.204;8.844;2023-03-01T04:43:05;13.00;;;5.57;;
72569;SDS011;60594;50.204;8.844;2023-03-01T04:45:32;11.68;;;6.22;;
72569;SDS011;60594;50.204;8.844;2023-03-01T04:48:00;13.13;;;6.25;;
72569;SDS011;60594;50.204;8.844;2023-03-01T04:50:27;10.18;;;6.55;;
72569;SDS011;60594;50.204;8.844;2023-03-01T04:52:53;13.07;;;5.55;;
72569;SDS011;60594;50.204;8.844;2023-03-01T04:55:20;14.52;;;6.30;;
72569;SDS011;60594;50.204;8.844;2023-03-01T04:57:46;11.88;;;6.22;;
72569;SDS011;60594;50.204;8.844;2023-03-01T05:00:13;12.00;;;4.97;;
72569;SDS011;60594;50.204;8.844;2023-03-01T05:05:20;12.10;;;5.65;;
72569;SDS011;60594;50.204;8.844;2023-03-01T05:07:55;13.18;;;5.82;;
72569;SDS011;60594;50.204;8.844;2023-03-01T05:10:23;9.00;;;5.45;;
72569;SDS011;60594;50.204;8.844;2023-03-01T05:12:51;11.23;;;5.65;;
72569;SDS011;60594;50.204;8.844;2023-03-01T05:15:20;14.13;;;6.50;;
72569;SDS011;60594;50.204;8.844;2023-03-01T05:17:48;11.18;;;6.00;;
72569;SDS011;60594;50.204;8.844;2023-03-01T05:20:15;12.88;;;6.88;;
72569;SDS011;60594;50.204;8.844;2023-03-01T05:22:41;11.18;;;6.03;;
72569;SDS011;60594;50.204;8.844;2023-03-01T05:25:08;15.13;;;6.63;;
72569;SDS011;60594;50.204;8.844;2023-03-01T05:27:35;10.50;;;5.68;;
72569;SDS011;60594;50.204;8.844;2023-03-01T05:30:02;12.43;;;7.00;;
72569;SDS011;60594;50.204;8.844;2023-03-01T05:32:44;14.20;;;6.00;;
72569;SDS011;60594;50.204;8.844;2023-03-01T05:35:13;10.40;;;5.32;;
72569;SDS011;60594;50.204;8.844;2023-03-01T05:37:42;11.73;;;6.15;;
72569;SDS011;60594;50.204;8.844;2023-03-01T05:40:10;12.20;;;5.28;;
72569;SDS011;60594;50.204;8.844;2023-03-01T05:42:48;13.90;;;6.38;;
72569;SDS011;60594;50.204;8.844;2023-03-01T05:45:16;14.10;;;7.68;;
72569;SDS011;60594;50.204;8.844;2023-03-01T05:47:44;12.77;;;6.85;;
72569;SDS011;60594;50.204;8.844;2023-03-01T05:50:14;15.57;;;6.53;;
72569;SDS011;60594;50.204;8.844;2023-03-01T05:52:58;13.40;;;6.97;;
72569;SDS011;60594;50.204;8.844;2023-03-01T05:55:32;10.55;;;5.45;;
72569;SDS011;60594;50.204;8.844;2023-03-01T05:57:59;13.38;;;7.05;;
72569;SDS011;60594;50.204;8.844;2023-03-01T06:00:27;12.38;;;6.05;;
72569;SDS011;60594;50.204;8.844;2023-03-01T06:02:54;14.27;;;6.63;;
72569;SDS011;60594;50.204;8.844;2023-03-01T06:05:21;13.00;;;6.43;;
72569;SDS011;60594;50.204;8.844;2023-03-01T06:07:48;9.63;;;5.20;;
72569;SDS011;60594;50.204;8.844;2023-03-01T06:10:16;11.55;;;5.53;;
72569;SDS011;60594;50.204;8.844;2023-03-01T06:12:44;10.63;;;6.00;;
72569;SDS011;60594;50.204;8.844;2023-03-01T06:15:11;11.23;;;6.50;;
72569;SDS011;60594;50.204;8.844;2023-03-01T06:17:40;10.90;;;6.53;;
72569;SDS011;60594;50.204;8.844;2023-03-01T06:22:38;12.32;;;6.30;;
72569;SDS011;60594;50.204;8.844;2023-03-01T06:25:05;15.05;;;6.72;;
72569;SDS011;60594;50.204;8.844;2023-03-01T06:27:32;11.75;;;6.13;;
72569;SDS011;60594;50.204;8.844;2023-03-01T06:29:59;11.73;;;7.28;;
72569;SDS011;60594;50.204;8.844;2023-03-01T06:32:25;11.38;;;6.85;;
72569;SDS011;60594;50.204;8.844;2023-03-01T06:34:52;12.75;;;6.28;;
72569;SDS011;60594;50.204;8.844;2023-03-01T06:37:18;13.25;;;5.93;;
72569;SDS011;60594;50.204;8.844;2023-03-01T06:39:45;10.95;;;5.72;;
72569;SDS011;60594;50.204;8.844;2023-03-01T06:42:11;12.43;;;6.30;;
72569;SDS011;60594;50.204;8.844;2023-03-01T06:44:38;14.90;;;5.30;;
72569;SDS011;60594;50.204;8.844;2023-03-01T06:47:04;15.60;;;7.05;;
72569;SDS011;60594;50.204;8.844;2023-03-01T06:49:31;9.88;;;6.03;;
72569;SDS011;60594;50.204;8.844;2023-03-01T06:51:57;9.50;;;5.68;;
72569;SDS011;60594;50.204;8.844;2023-03-01T06:54:24;12.25;;;6.13;;
72569;SDS011;60594;50.204;8.844;2023-03-01T06:56:50;15.38;;;6.10;;
72569;SDS011;60594;50.204;8.844;2023-03-01T06:59:17;16.50;;;6.57;;
72569;SDS011;60594;50.204;8.844;2023-03-01T07:01:44;12.20;;;6.38;;
72569;SDS011;60594;50.204;8.844;2023-03-01T07:04:11;11.70;;;6.93;;
72569;SDS011;60594;50.204;8.844;2023-03-01T07:06:39;12.43;;;5.88;;
72569;SDS011;60594;50.204;8.844;2023-03-01T07:09:05;12.15;;;6.35;;
72569;SDS011;60594;50.204;8.844;2023-03-01T07:11:32;12.77;;;6.63;;
72569;SDS011;60594;50.204;8.844;2023-03-01T07:13:59;13.85;;;6.95;;
72569;SDS011;60594;50.204;8.844;2023-03-01T07:16:26;11.88;;;6.25;;
72569;SDS011;60594;50.204;8.844;2023-03-01T07:18:52;13.88;;;6.82;;
72569;SDS011;60594;50.204;8.844;2023-03-01T07:21:19;13.70;;;6.28;;
72569;SDS011;60594;50.204;8.844;2023-03-01T07:23:47;11.25;;;6.00;;
72569;SDS011;60594;50.204;8.844;2023-03-01T07:26:14;10.02;;;5.82;;
72569;SDS011;60594;50.204;8.844;2023-03-01T07:28:40;11.93;;;7.28;;
72569;SDS011;60594;50.204;8.844;2023-03-01T07:31:07;10.73;;;5.38;;
72569;SDS011;60594;50.204;8.844;2023-03-01T07:33:33;11.18;;;6.63;;
72569;SDS011;60594;50.204;8.844;2023-03-01T07:36:01;11.45;;;5.95;;
72569;SDS011;60594;50.204;8.844;2023-03-01T07:38:29;14.30;;;6.45;;
72569;SDS011;60594;50.204;8.844;2023-03-01T07:40:59;11.73;;;6.18;;
72569;SDS011;60594;50.204;8.844;2023-03-01T07:43:28;13.30;;;6.13;;
72569;SDS011;60594;50.204;8.844;2023-03-01T07:45:58;9.82;;;6.22;;
72569;SDS011;60594;50.204;8.844;2023-03-01T07:48:26;22.27;;;7.60;;
72569;SDS011;60594;50.204;8.844;2023-03-01T07:50:53;13.95;;;6.88;;
72569;SDS011;60594;50.204;8.844;2023-03-01T07:53:20;13.68;;;6.13;;
72569;SDS011;60594;50.204;8.844;2023-03-01T07:55:46;15.15;;;7.57;;
72569;SDS011;60594;50.204;8.844;2023-03-01T07:58:13;14.40;;;7.40;;
72569;SDS011;60594;50.204;8.844;2023-03-01T08:00:39;14.85;;;7.07;;
72569;SDS011;60594;50.204;8.844;2023-03-01T08:03:06;14.80;;;7.65;;
72569;SDS011;60594;50.204;8.844;2023-03-01T08:05:33;10.50;;;5.55;;
72569;SDS011;60594;50.204;8.844;2023-03-01T08:07:59;14.00;;;6.28;;
72569;SDS011;60594;50.204;8.844;2023-03-01T08:10:26;13.80;;;7.47;;
72569;SDS011;60594;50.204;8.844;2023-03-01T08:12:52;15.90;;;8.40;;
72569;SDS011;60594;50.204;8.844;2023-03-01T08:15:19;13.32;;;7.25;;
72569;SDS011;60594;50.204;8.844;2023-03-01T08:17:46;13.75;;;6.57;;
72569;SDS011;60594;50.204;8.844;2023-03-01T08:20:15;16.25;;;7.78;;
72569;SDS011;60594;50.204;8.844;2023-03-01T08:22:42;12.93;;;6.72;;
72569;SDS011;60594;50.204;8.844;2023-03-01T08:25:09;14.32;;;6.45;;
72569;SDS011;60594;50.204;8.844;2023-03-01T08:27:36;15.13;;;8.27;;
72569;SDS011;60594;50.204;8.844;2023-03-01T08:30:02;13.18;;;6.65;;
72569;SDS011;60594;50.204;8.844;2023-03-01T08:32:29;14.63;;;8.27;;
72569;SDS011;60594;50.204;8.844;2023-03-01T08:34:55;14.57;;;7.22;;
72569;SDS011;60594;50.204;8.844;2023-03-01T08:37:22;15.32;;;8.45;;
72569;SDS011;60594;50.204;8.844;2023-03-01T08:39:48;16.48;;;7.53;;
72569;SDS011;60594;50.204;8.844;2023-03-01T08:42:15;15.13;;;7.45;;
72569;SDS011;60594;50.204;8.844;2023-03-01T08:44:41;16.05;;;8.25;;
72569;SDS011;60594;50.204;8.844;2023-03-01T08:47:08;14.38;;;7.30;;
72569;SDS011;60594;50.204;8.844;2023-03-01T08:49:34;16.65;;;7.32;;
72569;SDS011;60594;50.204;8.844;2023-03-01T08:52:01;14.68;;;7.85;;
72569;SDS011;60594;50.204;8.844;2023-03-01T08:54:28;15.75;;;8.05;;
72569;SDS011;60594;50.204;8.844;2023-03-01T08:56:55;14.07;;;7.70;;
72569;SDS011;60594;50.204;8.844;2023-03-01T08:59:21;15.88;;;6.72;;
72569;SDS011;60594;50.204;8.844;2023-03-01T09:01:48;14.82;;;8.10;;
72569;SDS011;60594;50.204;8.844;2023-03-01T09:04:15;16.10;;;8.73;;
72569;SDS011;60594;50.204;8.844;2023-03-01T09:06:42;15.05;;;7.35;;
72569;SDS011;60594;50.204;8.844;2023-03-01T09:09:13;14.88;;;8.18;;
72569;SDS011;60594;50.204;8.844;2023-03-01T09:11:42;18.92;;;8.43;;
72569;SDS011;60594;50.204;8.844;2023-03-01T09:14:10;14.10;;;7.10;;
72569;SDS011;60594;50.204;8.844;2023-03-01T09:19:05;12.88;;;6.78;;
72569;SDS011;60594;50.204;8.844;2023-03-01T09:21:32;15.02;;;7.18;;
72569;SDS011;60594;50.204;8.844;2023-03-01T09:23:58;13.80;;;6.75;;
72569;SDS011;60594;50.204;8.844;2023-03-01T09:26:25;14.38;;;7.50;;
72569;SDS011;60594;50.204;8.844;2023-03-01T09:28:53;15.27;;;7.65;;
72569;SDS011;60594;50.204;8.844;2023-03-01T09:31:21;16.92;;;7.95;;
72569;SDS011;60594;50.204;8.844;2023-03-01T09:33:49;12.43;;;7.60;;
72569;SDS011;60594;50.204;8.844;2023-03-01T09:36:19;15.80;;;7.28;;
72569;SDS011;60594;50.204;8.844;2023-03-01T09:38:47;14.77;;;6.93;;
72569;SDS011;60594;50.204;8.844;2023-03-01T09:43:45;15.40;;;8.05;;
72569;SDS011;60594;50.204;8.844;2023-03-01T09:46:14;17.50;;;8.00;;
72569;SDS011;60594;50.204;8.844;2023-03-01T09:48:46;14.05;;;7.07;;
72569;SDS011;60594;50.204;8.844;2023-03-01T09:51:18;14.93;;;6.68;;
72569;SDS011;60594;50.204;8.844;2023-03-01T09:53:50;13.55;;;7.55;;
72569;SDS011;60594;50.204;8.844;2023-03-01T09:56:22;15.05;;;7.45;;
72569;SDS011;60594;50.204;8.844;2023-03-01T10:07:21;16.27;;;7.40;;
72569;SDS011;60594;50.204;8.844;2023-03-01T10:09:51;14.85;;;7.13;;
72569;SDS011;60594;50.204;8.844;2023-03-01T10:12:19;13.85;;;7.70;;
72569;SDS011;60594;50.204;8.844;2023-03-01T10:14:55;13.95;;;6.70;;
72569;SDS011;60594;50.204;8.844;2023-03-01T10:17:47;14.45;;;7.75;;
72569;SDS011;60594;50.204;8.844;2023-03-01T10:20:22;13.32;;;7.13;;
72569;SDS011;60594;50.204;8.844;2023-03-01T10:22:50;11.82;;;6.50;;
72569;SDS011;60594;50.204;8.844;2023-03-01T10:25:22;14.05;;;6.93;;
72569;SDS011;60594;50.204;8.844;2023-03-01T10:28:17;13.30;;;6.63;;
72569;SDS011;60594;50.204;8.844;2023-03-01T10:30:49;12.75;;;6.57;;
72569;SDS011;60594;50.204;8.844;2023-03-01T10:33:18;16.02;;;6.75;;
72569;SDS011;60594;50.204;8.844;2023-03-01T10:35:47;12.10;;;6.35;;
72569;SDS011;60594;50.204;8.844;2023-03-01T10:38:15;12.65;;;7.05;;
72569;SDS011;60594;50.204;8.844;2023-03-01T10:43:20;12.43;;;6.43;;
72569;SDS011;60594;50.204;8.844;2023-03-01T10:45:47;10.52;;;5.68;;
72569;SDS011;60594;50.204;8.844;2023-03-01T10:48:16;12.57;;;6.93;;
72569;SDS011;60594;50.204;8.844;2023-03-01T10:50:46;14.98;;;6.95;;
72569;SDS011;60594;50.204;8.844;2023-03-01T10:53:19;13.00;;;6.53;;
72569;SDS011;60594;50.204;8.844;2023-03-01T10:55:56;13.45;;;6.80;;
72569;SDS011;60594;50.204;8.844;2023-03-01T10:58:25;13.38;;;5.88;;
72569;SDS011;60594;50.204;8.844;2023-03-01T11:00:58;12.07;;;6.25;;
72569;SDS011;60594;50.204;8.844;2023-03-01T11:03:31;12.98;;;6.35;;
72569;SDS011;60594;50.204;8.844;2023-03-01T11:08:43;13.02;;;6.70;;
72569;SDS011;60594;50.204;8.844;2023-03-01T11:11:21;12.60;;;6.28;;
72569;SDS011;60594;50.204;8.844;2023-03-01T11:13:55;13.23;;;6.53;;
72569;SDS011;60594;50.204;8.844;2023-03-01T11:16:31;11.65;;;6.35;;
72569;SDS011;60594;50.204;8.844;2023-03-01T11:19:12;12.57;;;5.97;;
72569;SDS011;60594;50.204;8.844;2023-03-01T11:24:46;11.93;;;6.13;;
72569;SDS011;60594;50.204;8.844;2023-03-01T11:27:17;13.75;;;6.20;;
72569;SDS011;60594;50.204;8.844;2023-03-01T11:29:45;12.07;;;6.03;;
72569;SDS011;60594;50.204;8.844;2023-03-01T11:32:17;11.32;;;6.75;;
72569;SDS011;60594;50.204;8.844;2023-03-01T11:43:26;10.73;;;5.25;;
72569;SDS011;60594;50.204;8.844;2023-03-01T11:46:19;10.82;;;5.88;;
72569;SDS011;60594;50.204;8.844;2023-03-01T12:08:38;10.48;;;5.95;;
72569;SDS011;60594;50.204;8.844;2023-03-01T12:11:12;10.43;;;5.53;;
72569;SDS011;60594;50.204;8.844;2023-03-01T12:22:39;11.20;;;5.40;;
72569;SDS011;60594;50.204;8.844;2023-03-01T12:25:20;10.40;;;5.47;;
72569;SDS011;60594;50.204;8.844;2023-03-01T12:27:57;11.07;;;6.07;;
72569;SDS011;60594;50.204;8.844;2023-03-01T12:50:42;8.77;;;4.75;;
72569;SDS011;60594;50.204;8.844;2023-03-01T12:53:19;9.85;;;5.15;;
72569;SDS011;60594;50.204;8.844;2023-03-01T12:55:59;9.38;;;4.90;;
72569;SDS011;60594;50.204;8.844;2023-03-01T13:09:27;7.35;;;4.47;;
72569;SDS011;60594;50.204;8.844;2023-03-01T13:12:41;10.25;;;4.70;;
72569;SDS011;60594;50.204;8.844;2023-03-01T13:17:54;8.63;;;4.63;;
72569;SDS011;60594;50.204;8.844;2023-03-01T13:20:26;8.55;;;4.32;;
72569;SDS011;60594;50.204;8.844;2023-03-01T13:31:26;9.07;;;5.28;;
72569;SDS011;60594;50.204;8.844;2023-03-01T13:33:57;10.48;;;4.57;;
72569;SDS011;60594;50.204;8.844;2023-03-01T13:38:55;9.68;;;4.93;;
72569;SDS011;60594;50.204;8.844;2023-03-01T13:41:53;9.25;;;4.88;;
72569;SDS011;60594;50.204;8.844;2023-03-01T13:44:26;7.95;;;4.28;;
72569;SDS011;60594;50.204;8.844;2023-03-01T13:46:57;9.38;;;5.18;;
72569;SDS011;60594;50.204;8.844;2023-03-01T13:49:33;10.02;;;4.82;;
72569;SDS011;60594;50.204;8.844;2023-03-01T13:52:21;8.43;;;4.10;;
72569;SDS011;60594;50.204;8.844;2023-03-01T13:55:14;8.35;;;4.75;;
72569;SDS011;60594;50.204;8.844;2023-03-01T13:57:46;10.50;;;4.78;;
72569;SDS011;60594;50.204;8.844;2023-03-01T14:00:29;9.82;;;4.55;;
72569;SDS011;60594;50.204;8.844;2023-03-01T14:03:00;8.85;;;5.15;;
72569;SDS011;60594;50.204;8.844;2023-03-01T14:05:33;9.77;;;5.03;;
72569;SDS011;60594;50.204;8.844;2023-03-01T14:08:03;8.88;;;4.65;;
72569;SDS011;60594;50.204;8.844;2023-03-01T14:10:43;9.23;;;4.97;;
72569;SDS011;60594;50.204;8.844;2023-03-01T14:21:46;10.55;;;4.85;;
72569;SDS011;60594;50.204;8.844;2023-03-01T14:24:18;10.48;;;5.13;;
72569;SDS011;60594;50.204;8.844;2023-03-01T14:26:48;10.40;;;4.97;;
72569;SDS011;60594;50.204;8.844;2023-03-01T14:31:53;9.00;;;5.28;;
72569;SDS011;60594;50.204;8.844;2023-03-01T14:34:21;9.80;;;4.78;;
72569;SDS011;60594;50.204;8.844;2023-03-01T14:36:48;10.23;;;4.90;;
72569;SDS011;60594;50.204;8.844;2023-03-01T14:39:16;8.85;;;4.75;;
72569;SDS011;60594;50.204;8.844;2023-03-01T14:41:44;9.90;;;4.75;;
72569;SDS011;60594;50.204;8.844;2023-03-01T14:44:14;7.85;;;4.47;;
72569;SDS011;60594;50.204;8.844;2023-03-01T14:46:45;9.52;;;4.97;;
72569;SDS011;60594;50.204;8.844;2023-03-01T14:51:42;9.68;;;5.57;;
72569;SDS011;60594;50.204;8.844;2023-03-01T14:54:29;10.63;;;5.05;;
72569;SDS011;60594;50.204;8.844;2023-03-01T14:57:03;9.30;;;4.93;;
72569;SDS011;60594;50.204;8.844;2023-03-01T14:59:32;8.50;;;4.18;;
72569;SDS011;60594;50.204;8.844;2023-03-01T15:02:00;10.07;;;5.32;;
72569;SDS011;60594;50.204;8.844;2023-03-01T15:04:27;11.60;;;6.07;;
72569;SDS011;60594;50.204;8.844;2023-03-01T15:06:55;9.77;;;5.72;;
72569;SDS011;60594;50.204;8.844;2023-03-01T15:09:31;11.27;;;6.00;;
72569;SDS011;60594;50.204;8.844;2023-03-01T15:12:00;12.13;;;5.85;;
72569;SDS011;60594;50.204;8.844;2023-03-01T15:14:42;12.27;;;5.45;;
72569;SDS011;60594;50.204;8.844;2023-03-01T15:17:20;9.07;;;5.35;;
72569;SDS011;60594;50.204;8.844;2023-03-01T15:19:52;11.00;;;5.40;;
72569;SDS011;60594;50.204;8.844;2023-03-01T15:22:19;9.90;;;5.40;;
72569;SDS011;60594;50.204;8.844;2023-03-01T15:27:18;11.85;;;5.40;;
72569;SDS011;60594;50.204;8.844;2023-03-01T15:29:49;11.88;;;5.28;;
72569;SDS011;60594;50.204;8.844;2023-03-01T15:32:28;9.57;;;5.15;;
72569;SDS011;60594;50.204;8.844;2023-03-01T15:34:57;8.55;;;4.63;;
72569;SDS011;60594;50.204;8.844;2023-03-01T15:43:01;9.82;;;5.30;;
72569;SDS011;60594;50.204;8.844;2023-03-01T15:45:31;10.05;;;5.82;;
72569;SDS011;60594;50.204;8.844;2023-03-01T15:48:03;10.27;;;5.28;;
72569;SDS011;60594;50.204;8.844;2023-03-01T15:50:33;10.27;;;5.28;;
72569;SDS011;60594;50.204;8.844;2023-03-01T15:53:04;12.20;;;6.10;;
72569;SDS011;60594;50.204;8.844;2023-03-01T15:55:34;13.60;;;5.88;;
72569;SDS011;60594;50.204;8.844;2023-03-01T15:58:05;12.00;;;5.85;;
72569;SDS011;60594;50.204;8.844;2023-03-01T16:00:36;10.10;;;5.65;;
72569;SDS011;60594;50.204;8.844;2023-03-01T16:03:02;10.02;;;5.40;;
72569;SDS011;60594;50.204;8.844;2023-03-01T16:05:31;10.90;;;6.05;;
72569;SDS011;60594;50.204;8.844;2023-03-01T16:08:00;10.18;;;5.57;;
72569;SDS011;60594;50.204;8.844;2023-03-01T16:10:28;10.88;;;5.80;;
72569;SDS011;60594;50.204;8.844;2023-03-01T16:12:54;8.77;;;5.22;;
72569;SDS011;60594;50.204;8.844;2023-03-01T16:15:22;10.80;;;5.47;;
72569;SDS011;60594;50.204;8.844;2023-03-01T16:17:51;10.77;;;5.40;;
72569;SDS011;60594;50.204;8.844;2023-03-01T16:20:22;11.10;;;6.15;;
72569;SDS011;60594;50.204;8.844;2023-03-01T16:22:48;9.60;;;5.43;;
72569;SDS011;60594;50.204;8.844;2023-03-01T16:25:16;11.57;;;5.47;;
72569;SDS011;60594;50.204;8.844;2023-03-01T16:27:46;10.70;;;5.15;;
72569;SDS011;60594;50.204;8.844;2023-03-01T16:30:14;13.25;;;6.10;;
72569;SDS011;60594;50.204;8.844;2023-03-01T16:32:43;10.55;;;5.82;;
72569;SDS011;60594;50.204;8.844;2023-03-01T16:35:12;13.70;;;5.97;;
72569;SDS011;60594;50.204;8.844;2023-03-01T16:37:40;12.57;;;5.78;;
72569;SDS011;60594;50.204;8.844;2023-03-01T16:40:14;10.77;;;5.45;;
72569;SDS011;60594;50.204;8.844;2023-03-01T16:42:44;11.48;;;5.68;;
72569;SDS011;60594;50.204;8.844;2023-03-01T16:45:10;11.25;;;5.57;;
72569;SDS011;60594;50.204;8.844;2023-03-01T16:47:37;13.05;;;6.45;;
72569;SDS011;60594;50.204;8.844;2023-03-01T16:50:04;11.43;;;5.68;;
72569;SDS011;60594;50.204;8.844;2023-03-01T16:52:31;11.23;;;6.13;;
72569;SDS011;60594;50.204;8.844;2023-03-01T16:55:00;11.23;;;5.72;;
72569;SDS011;60594;50.204;8.844;2023-03-01T16:57:26;9.63;;;4.95;;
72569;SDS011;60594;50.204;8.844;2023-03-01T16:59:53;11.75;;;5.82;;
72569;SDS011;60594;50.204;8.844;2023-03-01T17:02:20;10.55;;;5.95;;
72569;SDS011;60594;50.204;8.844;2023-03-01T17:04:53;11.70;;;5.82;;
72569;SDS011;60594;50.204;8.844;2023-03-01T17:07:21;11.82;;;6.63;;
72569;SDS011;60594;50.204;8.844;2023-03-01T17:09:48;12.40;;;6.10;;
72569;SDS011;60594;50.204;8.844;2023-03-01T17:12:15;10.57;;;5.35;;
72569;SDS011;60594;50.204;8.844;2023-03-01T17:14:42;13.88;;;6.97;;
72569;SDS011;60594;50.204;8.844;2023-03-01T17:17:09;8.75;;;5.28;;